Terminal Aerodrome Forecast
Issued by NWS Upton, NY

Home | Current Version | Previous Version | Text Only | Print | Product List | Glossary On
Versions: 1 2 3 4 5 6 7 8 9 10 11 12 13 14 15 16 17 18 19 20 21 22 23 24 25 26 27 28 29 30 31 32 33 34 35 36 37 38 39 40 41
572
FTUS41 KOKX 232326
TAFEWR
TAF
KEWR 232326Z 2400/2506 05030G50KT 2SM +RAPL OVC012
     FM240200 04030G49KT 2SM +RA OVC010
     FM240500 03028G44KT 2SM +RA OVC009
     FM240800 04024G45KT 3SM RA OVC009
     FM241100 03020G35KT 5SM -RA OVC009
     FM241700 36015G25KT 5SM -RA OVC009
     FM241900 35015G23KT 5SM -RA OVC010
     FM242100 33016G22KT 5SM -RA OVC012
     FM242300 33015G20KT 5SM -RA OVC024
     FM250400 31012KT 5SM -RA SCT080=

USA.gov is the U.S. government's official web portal to all federal, state and local government web resources and services.